Time;durP1;ratioP1;P1;durP2;ratioP2;P2;SDS_P1;SDS_P2;PMS_P1;PMS_P2;Temp;Humidity;BMP_temperature;BMP_pressure;BME280_temperature;BME280_humidity;BME280_pressure;Samples;Min_cycle;Max_cycle;Signal;HPM_P1;HPM_P2
2022/03/05 00:00:16;;;;;;;35.35;17.27;;;-1.10;99.90;;;;;;7361952;32;20131;-60
2022/03/05 00:04:18;;;;;;;29.40;14.10;;;-1.20;99.90;;;;;;7367292;32;20608;-59
2022/03/05 00:08:20;;;;;;;30.17;12.63;;;-1.20;99.90;;;;;;7361392;32;20146;-60
2022/03/05 00:12:22;;;;;;;31.98;13.55;;;-1.20;99.90;;;;;;7364302;32;20201;-60
2022/03/05 00:16:24;;;;;;;29.55;12.20;;;-1.30;99.90;;;;;;7354452;32;20593;-60
2022/03/05 00:20:26;;;;;;;32.65;13.32;;;-1.20;99.90;;;;;;7358412;32;20237;-63
2022/03/05 00:24:28;;;;;;;29.05;13.68;;;-1.20;99.90;;;;;;7356790;32;20111;-59
2022/03/05 00:28:30;;;;;;;34.20;15.10;;;-1.30;99.90;;;;;;7358243;32;20612;-60
2022/03/05 00:32:32;;;;;;;35.42;13.90;;;-1.30;99.90;;;;;;7367630;32;20227;-60
2022/03/05 00:36:33;;;;;;;31.85;12.98;;;-1.30;99.90;;;;;;7359445;32;20264;-60
2022/03/05 00:40:35;;;;;;;25.42;11.95;;;-1.40;99.90;;;;;;7360873;32;20212;-60
2022/03/05 00:44:37;;;;;;;27.65;12.10;;;-1.40;99.90;;;;;;7367846;32;20827;-59
2022/03/05 00:48:40;;;;;;;28.35;12.00;;;-1.40;99.90;;;;;;7357318;32;20152;-59
2022/03/05 00:52:42;;;;;;;26.37;11.12;;;-1.50;99.90;;;;;;7357541;32;20189;-61
2022/03/05 00:56:43;;;;;;;28.23;12.20;;;-1.50;99.90;;;;;;7365943;32;20157;-61
2022/03/05 01:00:45;;;;;;;30.95;11.93;;;-1.50;99.90;;;;;;7364750;32;20102;-61
2022/03/05 01:04:47;;;;;;;25.20;10.77;;;-1.60;99.90;;;;;;7361020;32;20138;-61
2022/03/05 01:08:49;;;;;;;23.08;11.02;;;-1.60;99.90;;;;;;7364656;32;20141;-61
2022/03/05 01:12:51;;;;;;;22.80;10.73;;;-1.70;99.90;;;;;;7361996;32;20159;-61
2022/03/05 01:16:52;;;;;;;28.12;11.68;;;-1.70;99.90;;;;;;7361752;32;20261;-60
2022/03/05 01:20:54;;;;;;;30.20;12.15;;;-1.70;99.90;;;;;;7363538;32;20107;-61
2022/03/05 01:24:56;;;;;;;28.02;11.57;;;-1.70;99.90;;;;;;7360593;32;20107;-61
2022/03/05 01:28:57;;;;;;;27.73;11.40;;;-1.80;99.90;;;;;;7362443;32;20126;-61
2022/03/05 01:32:59;;;;;;;25.55;10.45;;;-1.80;99.90;;;;;;7355998;32;20234;-61
2022/03/05 01:37:02;;;;;;;26.35;10.98;;;-1.80;99.90;;;;;;7352968;32;20124;-61
2022/03/05 01:41:05;;;;;;;27.23;11.15;;;-1.90;99.90;;;;;;7360984;32;20133;-61
2022/03/05 01:45:11;;;;;;;29.90;11.12;;;-1.90;99.90;;;;;;7358944;32;20198;-60
2022/03/05 01:49:13;;;;;;;28.80;11.45;;;-1.90;99.90;;;;;;7354732;32;20634;-61
2022/03/05 01:53:15;;;;;;;28.27;11.55;;;-1.90;99.90;;;;;;7359989;32;20099;-61
2022/03/05 01:57:17;;;;;;;27.65;11.18;;;-1.90;99.90;;;;;;7357797;32;20411;-60
2022/03/05 02:01:24;;;;;;;24.73;10.77;;;-1.90;99.90;;;;;;7360346;32;20185;-61
2022/03/05 02:05:26;;;;;;;;;;;-1.90;99.90;;;;;;7360809;32;20103;-61
2022/03/05 02:09:27;;;;;;;32.17;13.43;;;-2.00;99.90;;;;;;7360668;32;20010;-60
2022/03/05 02:13:29;;;;;;;30.70;14.15;;;-2.00;99.90;;;;;;7362255;32;20111;-60
2022/03/05 02:17:31;;;;;;;32.15;14.05;;;-2.00;99.90;;;;;;7364429;32;20492;-61
2022/03/05 02:21:33;;;;;;;32.67;14.77;;;-2.00;99.90;;;;;;7367883;32;21993;-60
2022/03/05 02:25:35;;;;;;;31.25;12.75;;;-2.00;99.90;;;;;;7364356;32;20129;-59
2022/03/05 02:29:37;;;;;;;31.50;13.60;;;-2.00;99.90;;;;;;7360275;32;20134;-60
2022/03/05 02:33:41;;;;;;;29.17;12.35;;;-2.10;99.90;;;;;;7364695;32;20900;-60
2022/03/05 02:37:42;;;;;;;33.75;13.80;;;-2.10;99.90;;;;;;7361169;32;20200;-60
2022/03/05 02:41:44;;;;;;;33.92;13.57;;;-2.10;99.90;;;;;;7357968;32;20107;-60
2022/03/05 02:45:46;;;;;;;30.95;12.80;;;-2.20;99.90;;;;;;7360184;32;20141;-60
2022/03/05 02:49:48;;;;;;;29.83;12.40;;;-2.20;99.90;;;;;;7368094;32;20198;-60
2022/03/05 02:53:50;;;;;;;35.03;12.52;;;-2.20;99.90;;;;;;7365150;32;20510;-60
2022/03/05 02:57:51;;;;;;;35.95;12.95;;;-2.20;99.90;;;;;;7366648;32;20957;-59
2022/03/05 03:01:53;;;;;;;32.50;12.52;;;-2.20;99.90;;;;;;7365687;32;20322;-60
2022/03/05 03:05:55;;;;;;;32.03;12.35;;;-2.20;99.90;;;;;;7370604;32;20250;-60
2022/03/05 03:09:58;;;;;;;34.08;12.37;;;-2.20;99.90;;;;;;7366647;32;20236;-60
2022/03/05 03:14:04;;;;;;;30.10;10.95;;;-2.20;99.90;;;;;;7362594;32;20151;-61
2022/03/05 03:18:06;;;;;;;30.62;11.68;;;-2.30;99.90;;;;;;7364249;32;20098;-60
2022/03/05 03:22:08;;;;;;;28.15;11.12;;;-2.30;99.90;;;;;;7360494;32;20397;-60
2022/03/05 03:26:10;;;;;;;29.40;12.30;;;-2.30;99.90;;;;;;7363237;32;20106;-60
2022/03/05 03:30:12;;;;;;;43.05;17.70;;;-2.30;99.90;;;;;;7356714;32;20124;-59
2022/03/05 03:34:14;;;;;;;38.08;16.35;;;-2.40;99.90;;;;;;7358288;32;20107;-59
2022/03/05 03:38:16;;;;;;;37.55;15.50;;;-2.40;99.90;;;;;;7366413;32;20145;-59
2022/03/05 03:42:18;;;;;;;39.63;15.00;;;-2.30;99.90;;;;;;7363472;32;20206;-59
2022/03/05 03:46:19;;;;;;;41.50;15.75;;;-2.40;99.90;;;;;;7359779;32;20551;-61
2022/03/05 03:50:23;;;;;;;39.38;15.57;;;-2.30;99.90;;;;;;7357869;32;20229;-60
2022/03/05 03:54:25;;;;;;;33.67;15.02;;;-2.30;99.90;;;;;;7359857;32;20141;-60
2022/03/05 03:58:27;;;;;;;35.20;13.75;;;-2.30;99.90;;;;;;7353513;32;20199;-60
2022/03/05 04:02:28;;;;;;;37.78;14.32;;;-2.20;99.90;;;;;;7354653;32;20126;-59
2022/03/05 04:08:41;;;;;;;43.75;16.85;;;-2.30;99.90;;;;;;7361868;32;20127;-60
2022/03/05 04:10:52;;;;;;;40.17;15.98;;;-2.20;99.90;;;;;;7360607;32;20138;-60
2022/03/05 04:14:54;;;;;;;38.30;14.90;;;-2.10;99.90;;;;;;7361955;32;20122;-59
2022/03/05 04:18:56;;;;;;;43.67;14.63;;;-2.10;99.90;;;;;;7353970;32;20206;-60
2022/03/05 04:22:58;;;;;;;38.60;13.60;;;-2.00;99.90;;;;;;7356575;32;20144;-59
2022/03/05 04:27:00;;;;;;;37.67;13.13;;;-1.90;99.90;;;;;;7358285;32;20107;-60
2022/03/05 04:31:02;;;;;;;39.22;13.48;;;-1.90;99.90;;;;;;7356416;32;20250;-60
2022/03/05 04:35:04;;;;;;;37.13;12.88;;;-1.80;99.90;;;;;;7368007;32;20217;-62
2022/03/05 04:39:06;;;;;;;40.75;14.02;;;-1.60;99.90;;;;;;7354464;32;20112;-60
2022/03/05 04:43:08;;;;;;;38.85;13.32;;;-1.50;99.90;;;;;;7361578;32;20108;-60
2022/03/05 04:47:09;;;;;;;37.92;13.98;;;-1.30;99.90;;;;;;7362231;32;20099;-60
2022/03/05 04:51:11;;;;;;;37.25;13.68;;;-1.20;99.90;;;;;;7358745;32;20103;-60
2022/03/05 04:55:13;;;;;;;31.85;12.00;;;-1.20;99.90;;;;;;7356477;32;20103;-61
2022/03/05 04:59:14;;;;;;;36.65;12.90;;;-1.10;99.90;;;;;;7355693;32;20122;-60
2022/03/05 05:03:16;;;;;;;38.63;13.18;;;-1.00;99.90;;;;;;7354165;32;20107;-60
2022/03/05 05:07:18;;;;;;;37.90;12.80;;;-0.90;99.90;;;;;;7361780;32;20473;-60
2022/03/05 05:11:20;;;;;;;33.35;12.80;;;-0.80;99.90;;;;;;7361035;32;20111;-58
2022/03/05 05:15:21;;;;;;;35.80;12.77;;;-0.80;99.90;;;;;;7358749;32;20130;-60
2022/03/05 05:19:29;;;;;;;32.95;12.35;;;-0.80;99.90;;;;;;7357823;32;20610;-60
2022/03/05 05:23:31;;;;;;;35.33;12.95;;;-0.70;99.90;;;;;;7366606;32;20154;-59
2022/03/05 05:27:39;;;;;;;33.33;12.20;;;-0.60;99.90;;;;;;7359317;32;20103;-60
2022/03/05 05:31:43;;;;;;;34.70;12.40;;;-0.60;99.90;;;;;;7357411;32;20199;-60
2022/03/05 05:35:44;;;;;;;32.40;11.52;;;-0.50;99.90;;;;;;7348120;32;20539;-60
2022/03/05 05:39:47;;;;;;;32.17;12.80;;;-0.50;99.90;;;;;;7359066;32;20114;-60
2022/03/05 05:43:56;;;;;;;32.40;12.25;;;-0.40;99.90;;;;;;7359023;32;20519;-60
2022/03/05 05:47:58;;;;;;;32.30;12.05;;;-0.40;99.90;;;;;;7363907;32;20108;-59
2022/03/05 05:52:00;;;;;;;30.60;12.30;;;-0.40;99.90;;;;;;7369818;32;20237;-60
2022/03/05 05:56:02;;;;;;;30.05;12.02;;;-0.50;99.90;;;;;;7371657;32;20447;-59
2022/03/05 06:00:05;;;;;;;30.12;12.40;;;-0.40;99.90;;;;;;7365786;32;20209;-62
2022/03/05 06:04:07;;;;;;;35.63;12.48;;;-0.40;99.90;;;;;;7365368;32;20202;-59
2022/03/05 06:08:08;;;;;;;31.37;12.15;;;-0.40;99.90;;;;;;7363251;32;20175;-59
2022/03/05 06:12:10;;;;;;;29.70;11.57;;;-0.40;99.90;;;;;;7354526;32;20107;-60
2022/03/05 06:16:12;;;;;;;33.28;12.93;;;-0.50;99.90;;;;;;7365968;32;20217;-59
2022/03/05 06:20:14;;;;;;;33.60;12.75;;;-0.50;99.90;;;;;;7361637;32;20208;-60
2022/03/05 06:24:16;;;;;;;29.23;12.20;;;-0.50;99.90;;;;;;7359934;32;20516;-60
2022/03/05 06:28:18;;;;;;;31.00;12.45;;;-0.40;99.90;;;;;;7363973;32;20111;-60
2022/03/05 06:32:20;;;;;;;30.90;11.85;;;-0.40;99.90;;;;;;7360428;32;20591;-60
2022/03/05 06:36:22;;;;;;;25.20;11.45;;;-0.40;99.90;;;;;;7366477;32;20130;-59
2022/03/05 06:40:23;;;;;;;31.92;11.60;;;-0.30;99.90;;;;;;7360053;32;20103;-60
2022/03/05 06:44:25;;;;;;;28.48;11.57;;;-0.20;99.90;;;;;;7359413;32;20111;-60
2022/03/05 06:48:27;;;;;;;28.65;12.68;;;-0.10;99.90;;;;;;7367898;32;20127;-59
2022/03/05 06:52:29;;;;;;;29.58;12.18;;;-0.10;99.90;;;;;;7359148;32;20115;-59
2022/03/05 06:56:31;;;;;;;26.33;11.52;;;-0.10;99.90;;;;;;7362477;32;20125;-59
2022/03/05 07:00:33;;;;;;;30.67;11.93;;;0.00;99.90;;;;;;7358867;32;20455;-59
2022/03/05 07:04:35;;;;;;;28.20;12.07;;;0.00;99.90;;;;;;7360961;32;20229;-59
2022/03/05 07:08:37;;;;;;;26.12;12.02;;;0.10;99.90;;;;;;7357001;32;20153;-60
2022/03/05 07:12:39;;;;;;;29.37;11.73;;;0.30;99.90;;;;;;7356883;32;20532;-60
2022/03/05 07:16:41;;;;;;;33.47;12.45;;;0.40;99.90;;;;;;7363851;32;20107;-60
2022/03/05 07:20:43;;;;;;;32.78;13.07;;;0.50;99.90;;;;;;7357957;32;20301;-61
2022/03/05 07:24:44;;;;;;;29.25;12.27;;;0.70;99.90;;;;;;7368401;32;20129;-62
2022/03/05 07:28:46;;;;;;;28.15;12.68;;;0.70;99.90;;;;;;7361909;32;20107;-60
2022/03/05 07:32:48;;;;;;;28.30;12.05;;;0.70;99.90;;;;;;7357298;32;20152;-61
2022/03/05 07:36:50;;;;;;;26.83;12.80;;;0.90;99.90;;;;;;7365587;32;20218;-61
2022/03/05 07:40:51;;;;;;;28.40;12.63;;;1.00;99.90;;;;;;7362425;32;20114;-60
2022/03/05 07:44:54;;;;;;;30.20;12.48;;;1.00;99.90;;;;;;7365028;32;20126;-60
2022/03/05 07:48:56;;;;;;;30.92;13.20;;;1.10;99.90;;;;;;7366044;32;20489;-60
2022/03/05 07:52:57;;;;;;;27.17;12.23;;;1.30;99.90;;;;;;7361948;32;20129;-61
2022/03/05 07:56:59;;;;;;;27.98;12.30;;;1.40;99.90;;;;;;7356823;32;20194;-60
2022/03/05 08:01:01;;;;;;;26.83;12.93;;;1.50;99.90;;;;;;7362719;32;20138;-59
2022/03/05 08:05:02;;;;;;;26.83;12.30;;;1.60;99.90;;;;;;7358199;32;20601;-61
2022/03/05 08:09:05;;;;;;;30.27;12.02;;;1.70;99.90;;;;;;7361074;32;20594;-61
2022/03/05 08:13:06;;;;;;;31.65;12.65;;;1.80;99.90;;;;;;7363808;32;20103;-60
2022/03/05 08:17:08;;;;;;;25.62;12.55;;;1.90;99.90;;;;;;7358376;32;20131;-60
2022/03/05 08:21:10;;;;;;;29.30;12.37;;;2.10;99.90;;;;;;7363802;32;20493;-62
2022/03/05 08:25:12;;;;;;;29.65;12.10;;;2.20;99.90;;;;;;7359783;32;20107;-60
2022/03/05 08:29:14;;;;;;;30.48;12.85;;;2.30;99.90;;;;;;7361891;32;20118;-61
2022/03/05 08:33:17;;;;;;;24.37;12.27;;;2.40;99.90;;;;;;7364531;32;20210;-59
2022/03/05 08:37:19;;;;;;;29.12;12.60;;;2.60;99.90;;;;;;7365404;32;20260;-61
2022/03/05 08:41:21;;;;;;;28.95;12.05;;;2.80;99.90;;;;;;7359062;32;20565;-62
2022/03/05 08:45:23;;;;;;;24.58;11.82;;;2.90;99.90;;;;;;7367214;32;20553;-60
2022/03/05 08:49:25;;;;;;;24.92;13.02;;;3.00;99.90;;;;;;7346889;32;20333;-60
2022/03/05 08:53:27;;;;;;;28.62;12.07;;;3.10;99.90;;;;;;7367327;32;20242;-60
2022/03/05 08:57:28;;;;;;;24.55;12.52;;;3.20;99.90;;;;;;7355177;32;20107;-58
2022/03/05 09:01:30;;;;;;;23.48;12.02;;;3.40;99.90;;;;;;7364797;32;20107;-59
2022/03/05 09:05:32;;;;;;;29.05;12.23;;;3.50;99.90;;;;;;7354404;32;20545;-60
2022/03/05 09:09:34;;;;;;;24.42;12.05;;;4.20;99.90;;;;;;7365012;32;20641;-63
2022/03/05 09:13:36;;;;;;;22.65;11.93;;;5.10;99.90;;;;;;7364657;32;20139;-60
2022/03/05 09:17:38;;;;;;;25.27;13.10;;;6.40;99.90;;;;;;7358750;32;20169;-59
2022/03/05 09:21:39;;;;;;;23.15;12.40;;;7.20;99.90;;;;;;7357618;32;20248;-61
2022/03/05 09:25:42;;;;;;;24.92;12.95;;;8.10;99.90;;;;;;7366538;32;20236;-61
2022/03/05 09:29:44;;;;;;;26.12;13.43;;;8.60;99.90;;;;;;7357104;32;20126;-63
2022/03/05 09:33:46;;;;;;;24.75;12.85;;;9.40;99.90;;;;;;7361446;32;20110;-61
2022/03/05 09:37:47;;;;;;;23.55;12.73;;;9.80;93.20;;;;;;7357193;32;20123;-59
2022/03/05 09:41:50;;;;;;;23.62;12.90;;;10.40;94.10;;;;;;7360820;32;20118;-60
2022/03/05 09:45:53;;;;;;;23.58;12.63;;;10.80;83.40;;;;;;7356841;32;20141;-59
2022/03/05 09:49:54;;;;;;;27.73;13.25;;;10.90;87.60;;;;;;7364403;32;20190;-59
2022/03/05 09:53:56;;;;;;;21.95;12.52;;;11.80;80.90;;;;;;7366697;32;20095;-58
2022/03/05 09:57:59;;;;;;;19.58;11.32;;;12.30;71.90;;;;;;7352520;32;20182;-62
2022/03/05 10:02:02;;;;;;;21.83;12.37;;;12.10;69.00;;;;;;7353110;32;20503;-58
2022/03/05 10:06:22;;;;;;;21.73;12.88;;;12.50;65.90;;;;;;7364122;32;20336;-56
2022/03/05 10:10:24;;;;;;;22.20;12.57;;;12.50;66.90;;;;;;7367259;32;20260;-61
2022/03/05 10:14:25;;;;;;;22.95;12.77;;;12.90;63.90;;;;;;7361895;32;20103;-59
2022/03/05 10:18:35;;;;;;;22.92;12.80;;;13.40;60.40;;;;;;7361677;32;20123;-59
2022/03/05 10:22:37;;;;;;;21.80;12.98;;;13.90;60.90;;;;;;7364809;32;20126;-62
2022/03/05 10:26:53;;;;;;;20.73;13.20;;;14.90;57.60;;;;;;7363164;32;20237;-59
2022/03/05 10:30:58;;;;;;;22.98;13.65;;;15.30;54.80;;;;;;7364254;32;20185;-59
2022/03/05 10:35:00;;;;;;;22.42;13.68;;;15.00;53.20;;;;;;7367703;32;20209;-59
2022/03/05 10:39:02;;;;;;;20.35;12.37;;;14.40;53.80;;;;;;7368276;32;20551;-59
2022/03/05 10:43:06;;;;;;;23.17;14.25;;;14.80;53.80;;;;;;7367044;32;20103;-62
2022/03/05 10:47:08;;;;;;;21.27;12.15;;;13.40;54.50;;;;;;7371656;32;20309;-59
2022/03/05 10:51:13;;;;;;;21.48;12.35;;;12.20;56.70;;;;;;7367913;32;20220;-61
2022/03/05 10:55:39;;;;;;;21.40;11.77;;;11.00;59.50;;;;;;7366779;32;20239;-60
2022/03/05 10:59:46;;;;;;;21.00;11.80;;;10.10;63.00;;;;;;7359949;32;20187;-59
2022/03/05 11:03:49;;;;;;;18.97;11.00;;;9.50;64.70;;;;;;7369316;32;20196;-59
2022/03/05 11:07:53;;;;;;;19.20;11.00;;;9.10;66.50;;;;;;7359759;32;20215;-60
2022/03/05 11:11:58;;;;;;;18.65;10.52;;;8.90;69.80;;;;;;7361498;32;20257;-58
2022/03/05 11:16:01;;;;;;;18.50;10.38;;;8.70;70.50;;;;;;7366775;32;20226;-58
2022/03/05 11:20:04;;;;;;;17.90;9.95;;;8.50;71.90;;;;;;7360163;32;21158;-60
2022/03/05 11:24:06;;;;;;;21.40;11.80;;;8.50;72.60;;;;;;7360012;32;20198;-60
2022/03/05 11:28:08;;;;;;;18.92;10.75;;;8.30;74.50;;;;;;7361767;32;20498;-62
2022/03/05 11:32:18;;;;;;;19.17;11.38;;;8.30;75.20;;;;;;7366815;32;20145;-59
2022/03/05 11:36:32;;;;;;;19.15;10.88;;;8.40;78.40;;;;;;7357310;32;20166;-58
2022/03/05 11:40:38;;;;;;;20.27;11.40;;;8.60;78.90;;;;;;7358372;32;20202;-58
2022/03/05 11:44:45;;;;;;;17.27;10.75;;;9.20;71.40;;;;;;7358774;32;20095;-58
2022/03/05 11:49:08;;;;;;;18.35;11.20;;;10.10;66.30;;;;;;7355490;32;20289;-60
2022/03/05 11:53:13;;;;;;;19.95;11.32;;;10.80;62.70;;;;;;7356089;32;20155;-61
2022/03/05 11:57:15;;;;;;;19.48;10.50;;;11.20;61.70;;;;;;7357803;32;20940;-63
2022/03/05 12:01:41;;;;;;;18.62;10.68;;;12.10;54.40;;;;;;7361530;32;20543;-60
2022/03/05 12:05:47;;;;;;;19.67;10.52;;;11.90;55.00;;;;;;7355759;32;20171;-60
2022/03/05 12:10:02;;;;;;;17.25;11.23;;;12.60;54.60;;;;;;7355272;32;20111;-64
2022/03/05 12:14:06;;;;;;;15.70;9.93;;;13.10;53.20;;;;;;7354465;32;20123;-60
2022/03/05 12:18:12;;;;;;;18.17;12.05;;;13.10;51.70;;;;;;7357861;32;20198;-59
2022/03/05 12:22:15;;;;;;;17.62;11.43;;;13.30;51.60;;;;;;7352749;32;20127;-61
2022/03/05 12:26:18;;;;;;;16.62;11.23;;;13.70;51.10;;;;;;7355691;32;20780;-60
2022/03/05 12:30:33;;;;;;;17.87;11.02;;;13.70;51.20;;;;;;7357412;32;20129;-61
2022/03/05 12:34:35;;;;;;;14.82;10.25;;;14.30;50.90;;;;;;7361973;32;20252;-62
2022/03/05 12:38:37;;;;;;;16.45;10.57;;;14.50;47.90;;;;;;7358469;32;20630;-59
2022/03/05 12:42:49;;;;;;;15.43;10.68;;;14.20;46.60;;;;;;7350482;32;20522;-59
2022/03/05 12:46:51;;;;;;;18.02;11.88;;;13.70;48.50;;;;;;7351832;32;20873;-62
2022/03/05 12:50:54;;;;;;;18.85;10.65;;;13.30;50.10;;;;;;7356423;32;20849;-61
2022/03/05 12:54:55;;;;;;;16.98;10.23;;;12.70;51.50;;;;;;7347567;32;20527;-60
2022/03/05 12:58:58;;;;;;;16.95;11.10;;;12.60;52.10;;;;;;7357603;32;20172;-59
2022/03/05 13:03:00;;;;;;;17.73;10.48;;;12.30;51.20;;;;;;7363132;32;20156;-59
2022/03/05 13:07:03;;;;;;;18.27;10.88;;;12.40;51.10;;;;;;7354797;32;20139;-60
2022/03/05 13:11:05;;;;;;;14.70;10.02;;;12.00;52.20;;;;;;7356260;32;20603;-61
2022/03/05 13:15:09;;;;;;;15.10;9.80;;;12.40;52.40;;;;;;7360424;32;20812;-61
2022/03/05 13:19:12;;;;;;;16.50;10.20;;;12.40;52.30;;;;;;7355195;32;20155;-60
2022/03/05 13:23:18;;;;;;;16.65;9.70;;;12.50;52.60;;;;;;7363579;32;20161;-57
2022/03/05 13:27:25;;;;;;;19.67;11.02;;;12.90;52.50;;;;;;7364094;32;20111;-58
2022/03/05 13:31:28;;;;;;;15.60;9.88;;;13.00;49.70;;;;;;7358785;32;20156;-59
2022/03/05 13:35:40;;;;;;;16.15;10.20;;;13.80;50.40;;;;;;7360506;32;20123;-61
2022/03/05 13:39:42;;;;;;;18.05;10.73;;;13.50;48.70;;;;;;7350272;32;20139;-60
2022/03/05 13:43:44;;;;;;;15.55;10.07;;;13.90;48.40;;;;;;7362139;32;20103;-60
2022/03/05 13:47:48;;;;;;;16.95;10.32;;;14.20;47.80;;;;;;7356132;32;20849;-63
2022/03/05 13:51:53;;;;;;;19.55;11.70;;;14.40;47.60;;;;;;7353967;32;20107;-60
2022/03/05 13:56:03;;;;;;;17.45;11.05;;;14.40;46.20;;;;;;7359195;32;20277;-60
2022/03/05 14:00:19;;;;;;;15.98;10.38;;;14.40;45.80;;;;;;7366721;32;20129;-62
2022/03/05 14:04:22;;;;;;;16.70;11.20;;;14.70;44.30;;;;;;7352516;32;20103;-60
2022/03/05 14:08:24;;;;;;;20.50;10.88;;;15.00;44.30;;;;;;7357548;32;20175;-60
2022/03/05 14:12:29;;;;;;;17.92;11.85;;;15.00;44.90;;;;;;7360108;32;20202;-62
2022/03/05 14:16:44;;;;;;;16.92;11.18;;;14.90;44.00;;;;;;7352897;32;20103;-59
2022/03/05 14:20:47;;;;;;;15.10;10.88;;;15.40;42.70;;;;;;7359314;32;20231;-60
2022/03/05 14:24:55;;;;;;;14.38;10.15;;;15.60;42.50;;;;;;7364294;32;20712;-62
2022/03/05 14:28:57;;;;;;;14.30;10.05;;;15.20;41.50;;;;;;7361234;32;20223;-59
2022/03/05 14:32:59;;;;;;;14.68;9.45;;;14.70;41.40;;;;;;7359689;32;20149;-60
2022/03/05 14:37:02;;;;;;;15.43;10.25;;;14.60;43.10;;;;;;7363007;32;20469;-59
2022/03/05 14:41:05;;;;;;;14.32;9.82;;;14.40;43.80;;;;;;7354963;32;20814;-61
2022/03/05 14:45:09;;;;;;;16.37;10.82;;;13.90;45.60;;;;;;7366187;32;20953;-63
2022/03/05 14:49:11;;;;;;;14.05;9.63;;;13.50;44.90;;;;;;7357740;32;20126;-60
2022/03/05 14:53:13;;;;;;;16.02;9.73;;;13.20;45.60;;;;;;7363570;32;20121;-61
2022/03/05 14:57:22;;;;;;;13.88;10.63;;;12.60;47.40;;;;;;7360581;32;20103;-62
2022/03/05 15:01:24;;;;;;;15.75;10.35;;;11.60;48.20;;;;;;7371777;32;20141;-60
2022/03/05 15:05:25;;;;;;;14.90;9.43;;;11.40;50.40;;;;;;7361105;32;20204;-64
2022/03/05 15:09:27;;;;;;;17.08;9.98;;;11.00;49.90;;;;;;7362535;32;20159;-61
2022/03/05 15:13:30;;;;;;;14.38;9.38;;;10.80;51.20;;;;;;7372704;32;20125;-60
2022/03/05 15:17:35;;;;;;;15.63;9.48;;;10.50;51.70;;;;;;7370290;32;20218;-60
2022/03/05 15:21:37;;;;;;;14.90;8.40;;;10.30;52.80;;;;;;7367368;32;20212;-60
2022/03/05 15:25:39;;;;;;;15.77;9.50;;;10.20;53.40;;;;;;7365780;32;20750;-62
2022/03/05 15:29:40;;;;;;;15.93;9.13;;;9.90;52.30;;;;;;7365211;32;20107;-59
2022/03/05 15:33:43;;;;;;;13.82;8.45;;;9.60;54.00;;;;;;7372712;32;20117;-63
2022/03/05 15:37:52;;;;;;;13.05;8.30;;;9.70;54.20;;;;;;7368951;32;20111;-59
2022/03/05 15:41:54;;;;;;;14.57;8.50;;;9.60;53.00;;;;;;7367343;32;20297;-61
2022/03/05 15:45:56;;;;;;;15.98;8.82;;;9.40;55.30;;;;;;7363516;32;20591;-62
2022/03/05 15:49:57;;;;;;;12.65;7.68;;;9.40;55.70;;;;;;7361632;32;20439;-62
2022/03/05 15:53:59;;;;;;;15.57;8.38;;;9.30;55.30;;;;;;7360893;32;20134;-65
2022/03/05 15:58:01;;;;;;;14.70;8.30;;;9.20;56.10;;;;;;7357580;32;20134;-59
2022/03/05 16:02:03;;;;;;;16.27;9.43;;;9.00;57.90;;;;;;7356433;32;20730;-62
2022/03/05 16:06:06;;;;;;;14.18;8.25;;;8.70;56.70;;;;;;7352529;32;20617;-60
2022/03/05 16:10:09;;;;;;;16.70;8.98;;;8.70;56.10;;;;;;7358923;32;20129;-62
2022/03/05 16:14:11;;;;;;;17.23;9.40;;;8.70;56.60;;;;;;7352887;32;20206;-62
2022/03/05 16:18:12;;;;;;;16.25;8.57;;;8.60;57.00;;;;;;7356753;32;20106;-60
2022/03/05 16:22:14;;;;;;;12.77;7.80;;;8.40;56.70;;;;;;7360738;32;20196;-61
2022/03/05 16:26:16;;;;;;;14.57;8.13;;;8.40;58.10;;;;;;7356569;32;20235;-60
2022/03/05 16:30:18;;;;;;;13.68;7.97;;;8.30;59.60;;;;;;7365680;32;20542;-60
2022/03/05 16:34:24;;;;;;;11.43;7.55;;;8.20;59.20;;;;;;7353982;32;20127;-61
2022/03/05 16:38:25;;;;;;;15.30;8.25;;;8.10;60.80;;;;;;7355250;32;20221;-60
2022/03/05 16:42:27;;;;;;;15.02;8.20;;;7.90;60.30;;;;;;7359496;32;20107;-63
2022/03/05 16:46:31;;;;;;;14.52;8.57;;;7.80;62.80;;;;;;7359372;32;20148;-60
2022/03/05 16:50:33;;;;;;;13.05;7.62;;;7.60;62.00;;;;;;7363978;32;20529;-62
2022/03/05 16:54:35;;;;;;;14.40;7.75;;;7.40;63.50;;;;;;7367605;32;20102;-59
2022/03/05 16:58:37;;;;;;;13.25;7.75;;;7.30;67.70;;;;;;7363870;32;20133;-63
2022/03/05 17:02:41;;;;;;;14.02;7.30;;;7.20;69.30;;;;;;7369102;32;20181;-62
2022/03/05 17:06:43;;;;;;;12.57;6.57;;;6.90;70.10;;;;;;7356604;32;20122;-61
2022/03/05 17:10:45;;;;;;;14.13;7.20;;;6.70;69.00;;;;;;7367175;32;20238;-60
2022/03/05 17:14:46;;;;;;;13.95;7.78;;;6.40;70.70;;;;;;7370037;32;20119;-61
2022/03/05 17:18:48;;;;;;;14.45;7.12;;;6.20;72.20;;;;;;7361179;32;20244;-60
2022/03/05 17:22:50;;;;;;;14.93;7.12;;;6.00;76.10;;;;;;7362642;32;20251;-60
2022/03/05 17:26:52;;;;;;;15.48;7.65;;;5.70;83.50;;;;;;7360791;32;20206;-60
2022/03/05 17:30:54;;;;;;;13.77;7.62;;;5.60;89.50;;;;;;7358315;32;20277;-59
2022/03/05 17:34:56;;;;;;;14.60;7.55;;;5.20;92.90;;;;;;7360659;32;20281;-60
2022/03/05 17:38:58;;;;;;;14.18;7.05;;;4.90;99.10;;;;;;7359970;32;20198;-59
2022/03/05 17:43:00;;;;;;;12.23;6.95;;;4.60;99.90;;;;;;7360075;32;20182;-59
2022/03/05 17:47:21;;;;;;;15.07;8.23;;;4.40;99.90;;;;;;7363430;32;20129;-59
2022/03/05 17:51:23;;;;;;;17.87;7.37;;;4.20;99.90;;;;;;7363638;32;20197;-59
2022/03/05 17:55:28;;;;;;;15.38;7.75;;;4.00;99.90;;;;;;7363536;32;20158;-60
2022/03/05 17:59:30;;;;;;;12.82;7.12;;;3.70;99.90;;;;;;7362246;32;20125;-59
2022/03/05 18:03:32;;;;;;;18.55;7.82;;;3.50;99.90;;;;;;7360909;32;20103;-58
2022/03/05 18:07:34;;;;;;;15.63;7.97;;;3.30;99.90;;;;;;7368686;32;20103;-59
2022/03/05 18:11:36;;;;;;;23.10;11.18;;;3.10;99.90;;;;;;7369114;32;20407;-59
2022/03/05 18:15:39;;;;;;;22.48;11.95;;;3.00;99.90;;;;;;7363172;32;20126;-59
2022/03/05 18:19:41;;;;;;;20.55;10.25;;;2.80;99.90;;;;;;7368531;32;20487;-59
2022/03/05 18:23:43;;;;;;;21.75;10.43;;;2.60;99.90;;;;;;7369499;32;20276;-60
2022/03/05 18:27:45;;;;;;;18.83;9.90;;;2.40;99.90;;;;;;7367218;32;20224;-59
2022/03/05 18:31:47;;;;;;;14.75;8.95;;;2.30;99.90;;;;;;7365995;32;20126;-59
2022/03/05 18:35:49;;;;;;;15.27;7.87;;;2.10;99.90;;;;;;7364301;32;20135;-59
2022/03/05 18:39:53;;;;;;;15.45;8.40;;;1.90;99.90;;;;;;7369731;32;20199;-58
2022/03/05 18:43:55;;;;;;;14.90;7.75;;;1.90;99.90;;;;;;7372750;32;20133;-59
2022/03/05 18:47:58;;;;;;;15.77;7.57;;;1.80;99.90;;;;;;7363476;32;21537;-59
2022/03/05 18:52:00;;;;;;;15.60;8.07;;;1.60;99.90;;;;;;7371212;32;20236;-58
2022/03/05 18:56:02;;;;;;;16.15;7.65;;;1.50;99.90;;;;;;7362345;32;20122;-59
2022/03/05 19:00:15;;;;;;;19.50;8.77;;;1.40;99.90;;;;;;7358363;32;20489;-60
2022/03/05 19:04:16;;;;;;;17.75;8.65;;;1.30;99.90;;;;;;7359346;32;20205;-59
2022/03/05 19:08:20;;;;;;;23.45;11.55;;;1.10;99.90;;;;;;7360246;32;20129;-59
2022/03/05 19:12:21;;;;;;;23.05;11.63;;;1.10;99.90;;;;;;7364052;32;20137;-59
2022/03/05 19:16:23;;;;;;;27.30;13.40;;;0.90;99.90;;;;;;7355948;32;20110;-59
2022/03/05 19:20:26;;;;;;;18.98;11.80;;;0.80;99.90;;;;;;7364886;32;20102;-59
2022/03/05 19:24:27;;;;;;;23.62;13.18;;;0.80;99.90;;;;;;7356886;32;20099;-59
2022/03/05 19:28:29;;;;;;;24.55;12.88;;;0.80;99.90;;;;;;7354696;32;20203;-60
2022/03/05 19:32:31;;;;;;;24.45;12.40;;;0.70;99.90;;;;;;7357516;32;20147;-59
2022/03/05 19:36:33;;;;;;;27.17;15.23;;;0.70;99.90;;;;;;7361537;32;20106;-60
2022/03/05 19:40:37;;;;;;;29.95;16.00;;;0.70;99.90;;;;;;7364486;32;20198;-60
2022/03/05 19:44:39;;;;;;;26.23;13.57;;;0.70;99.90;;;;;;7361574;32;20127;-61
2022/03/05 19:48:41;;;;;;;30.62;15.25;;;0.60;99.90;;;;;;7363912;32;20123;-60
2022/03/05 19:52:43;;;;;;;35.45;17.80;;;0.60;99.90;;;;;;7361851;32;20142;-59
2022/03/05 19:56:45;;;;;;;32.55;16.37;;;0.50;99.90;;;;;;7363177;32;20130;-61
2022/03/05 20:00:47;;;;;;;31.27;15.70;;;0.40;99.90;;;;;;7361333;32;20299;-60
2022/03/05 20:04:49;;;;;;;38.17;17.70;;;0.30;99.90;;;;;;7367119;32;20099;-59
2022/03/05 20:08:50;;;;;;;37.17;18.62;;;0.30;99.90;;;;;;7363387;32;20110;-63
2022/03/05 20:12:53;;;;;;;33.00;17.00;;;0.20;99.90;;;;;;7361066;32;20103;-59
2022/03/05 20:16:56;;;;;;;32.50;16.83;;;0.10;99.90;;;;;;7363300;32;20111;-60
2022/03/05 20:20:58;;;;;;;33.25;17.05;;;0.10;99.90;;;;;;7359995;32;20122;-59
2022/03/05 20:25:00;;;;;;;28.80;15.05;;;0.20;99.90;;;;;;7359926;32;20278;-60
2022/03/05 20:29:05;;;;;;;25.60;12.65;;;0.00;99.90;;;;;;7356677;32;20104;-61
2022/03/05 20:33:07;;;;;;;26.65;15.20;;;-0.10;99.90;;;;;;7358166;32;20636;-60
2022/03/05 20:37:09;;;;;;;28.70;13.85;;;-0.10;99.90;;;;;;7362085;32;20166;-60
2022/03/05 20:41:11;;;;;;;31.33;16.42;;;-0.10;99.90;;;;;;7362426;32;20103;-59